Time;durP1;ratioP1;P1;durP2;ratioP2;P2;SDS_P1;SDS_P2;PMS_P1;PMS_P2;Temp;Humidity;BMP_temperature;BMP_pressure;BME280_temperature;BME280_humidity;BME280_pressure;Samples;Min_cycle;Max_cycle;Signal;HPM_P1;HPM_P2
2022/06/25 00:01:53;;;;;;;2.05;1.10;;;;;;;;;;5106713;28;20046;-49
2022/06/25 00:07:03;;;;;;;6.25;1.17;;;;;;;;;;5104781;28;20130;-47
2022/06/25 00:09:28;;;;;;;1.63;0.93;;;;;;;;;;5106044;28;20464;-47
2022/06/25 00:14:39;;;;;;;4.55;1.27;;;;;;;;;;5105250;28;20135;-49
2022/06/25 00:17:04;;;;;;;4.45;2.33;;;;;;;;;;5105544;27;20036;-50
2022/06/25 00:19:30;;;;;;;3.05;1.42;;;;;;;;;;5105273;27;20483;-49
2022/06/25 00:21:56;;;;;;;2.67;1.55;;;;;;;;;;5104994;28;20062;-46
2022/06/25 00:24:23;;;;;;;3.42;1.63;;;;;;;;;;5107286;28;20633;-48
2022/06/25 00:26:48;;;;;;;10.45;1.45;;;;;;;;;;5103973;28;20039;-53
2022/06/25 00:29:15;;;;;;;4.15;1.55;;;;;;;;;;5102958;28;20070;-49
2022/06/25 00:31:41;;;;;;;2.17;0.90;;;;;;;;;;5105682;28;20102;-50
2022/06/25 00:34:07;;;;;;;4.57;1.80;;;;;;;;;;5103207;28;20946;-46
2022/06/25 00:36:32;;;;;;;4.28;1.58;;;;;;;;;;5104163;28;20142;-49
2022/06/25 00:38:58;;;;;;;6.15;1.55;;;;;;;;;;5104813;28;20028;-50
2022/06/25 00:41:23;;;;;;;3.45;1.63;;;;;;;;;;5107350;28;20046;-48
2022/06/25 00:43:49;;;;;;;4.22;1.17;;;;;;;;;;5102327;28;20035;-48
2022/06/25 00:46:15;;;;;;;1.48;1.17;;;;;;;;;;5105966;28;20516;-52
2022/06/25 00:48:40;;;;;;;3.00;1.63;;;;;;;;;;5106914;28;20096;-50
2022/06/25 00:51:20;;;;;;;1.52;1.20;;;;;;;;;;5108678;28;20071;-49
2022/06/25 00:53:46;;;;;;;2.15;1.30;;;;;;;;;;5107943;28;20044;-49
2022/06/25 00:56:12;;;;;;;7.05;1.52;;;;;;;;;;5102383;27;20046;-44
2022/06/25 00:58:39;;;;;;;2.60;0.95;;;;;;;;;;5104093;28;20071;-52
2022/06/25 01:01:04;;;;;;;2.35;0.98;;;;;;;;;;5105094;28;20040;-47
2022/06/25 01:03:30;;;;;;;9.73;1.35;;;;;;;;;;5104597;28;20043;-44
2022/06/25 01:05:56;;;;;;;10.50;1.67;;;;;;;;;;5101525;28;20149;-44
2022/06/25 01:08:21;;;;;;;4.82;1.50;;;;;;;;;;5104528;28;20051;-46
2022/06/25 01:10:47;;;;;;;4.07;1.35;;;;;;;;;;5103220;28;20526;-46
2022/06/25 01:13:12;;;;;;;6.70;1.13;;;;;;;;;;5105259;28;20101;-46
2022/06/25 01:15:38;;;;;;;9.00;2.35;;;;;;;;;;5104698;28;20135;-50
2022/06/25 01:18:04;;;;;;;3.50;1.55;;;;;;;;;;5086410;28;20056;-51
2022/06/25 01:20:29;;;;;;;8.65;1.98;;;;;;;;;;5104129;28;20048;-50
2022/06/25 01:22:56;;;;;;;1.67;1.08;;;;;;;;;;5104963;28;20055;-48
2022/06/25 01:25:22;;;;;;;8.02;2.40;;;;;;;;;;5100753;28;20149;-48
2022/06/25 01:27:47;;;;;;;2.25;1.42;;;;;;;;;;5104826;28;20138;-47
2022/06/25 01:30:13;;;;;;;4.20;1.65;;;;;;;;;;5103254;28;20051;-49
2022/06/25 01:32:38;;;;;;;2.83;1.60;;;;;;;;;;5100671;28;20047;-44
2022/06/25 01:35:04;;;;;;;1.70;0.60;;;;;;;;;;5096363;28;20177;-45
2022/06/25 01:37:29;;;;;;;2.28;1.02;;;;;;;;;;5102494;28;20035;-46
2022/06/25 01:39:56;;;;;;;2.83;1.20;;;;;;;;;;5103731;28;20048;-49
2022/06/25 01:45:06;;;;;;;1.08;0.90;;;;;;;;;;5104463;28;20096;-47
2022/06/25 01:47:31;;;;;;;16.67;1.27;;;;;;;;;;5101860;28;20418;-46
2022/06/25 01:49:56;;;;;;;5.88;2.15;;;;;;;;;;5104326;28;20047;-46
2022/06/25 01:52:22;;;;;;;2.15;1.42;;;;;;;;;;5104188;28;20055;-45
2022/06/25 01:54:47;;;;;;;2.13;1.35;;;;;;;;;;5096813;28;20044;-51
2022/06/25 01:57:12;;;;;;;3.28;1.60;;;;;;;;;;5103205;28;20046;-49
2022/06/25 01:59:38;;;;;;;3.45;1.58;;;;;;;;;;5106869;28;20051;-50
2022/06/25 02:02:03;;;;;;;8.95;1.00;;;;;;;;;;5105220;28;20062;-46
2022/06/25 02:04:28;;;;;;;3.53;0.90;;;;;;;;;;5106687;28;20055;-46
2022/06/25 02:06:54;;;;;;;3.15;1.45;;;;;;;;;;5106300;28;20082;-47
2022/06/25 02:09:19;;;;;;;2.28;1.15;;;;;;;;;;5100574;28;20508;-45
2022/06/25 02:11:44;;;;;;;2.45;1.42;;;;;;;;;;5095190;27;20391;-45
2022/06/25 02:14:10;;;;;;;7.78;1.80;;;;;;;;;;5100662;28;20118;-47
2022/06/25 02:16:35;;;;;;;3.92;1.48;;;;;;;;;;5103675;28;20530;-46
2022/06/25 02:19:00;;;;;;;1.63;1.30;;;;;;;;;;5103656;28;20039;-48
2022/06/25 02:21:27;;;;;;;2.28;1.23;;;;;;;;;;5101612;28;20458;-47
2022/06/25 02:23:52;;;;;;;3.22;1.23;;;;;;;;;;5102402;28;20059;-48
2022/06/25 02:26:17;;;;;;;3.10;1.02;;;;;;;;;;5103967;28;20549;-49
2022/06/25 02:28:43;;;;;;;1.73;1.00;;;;;;;;;;5103132;28;20700;-46
2022/06/25 02:31:08;;;;;;;4.63;2.10;;;;;;;;;;5103101;28;20051;-49
2022/06/25 02:33:33;;;;;;;2.13;1.52;;;;;;;;;;5102569;28;20047;-52
2022/06/25 02:35:59;;;;;;;5.53;1.30;;;;;;;;;;5101259;28;20048;-47
2022/06/25 02:38:24;;;;;;;2.83;1.00;;;;;;;;;;5100109;28;20040;-49
2022/06/25 02:40:49;;;;;;;2.28;1.33;;;;;;;;;;5100421;28;20071;-46
2022/06/25 02:43:14;;;;;;;2.83;1.35;;;;;;;;;;5101809;28;20059;-46
2022/06/25 02:45:40;;;;;;;8.73;1.70;;;;;;;;;;5103608;28;20059;-49
2022/06/25 02:48:05;;;;;;;3.00;1.60;;;;;;;;;;5100634;28;20043;-49
2022/06/25 02:50:31;;;;;;;3.10;1.80;;;;;;;;;;5101038;28;20692;-47
2022/06/25 02:52:56;;;;;;;3.22;1.98;;;;;;;;;;5099206;28;20048;-49
2022/06/25 03:00:53;;;;;;;1.85;1.40;;;;;;;;;;5102198;28;20236;-46
2022/06/25 03:03:19;;;;;;;5.32;1.25;;;;;;;;;;5099361;28;20146;-48
2022/06/25 03:05:44;;;;;;;4.63;2.13;;;;;;;;;;5097901;28;20047;-49
2022/06/25 03:08:09;;;;;;;2.50;1.08;;;;;;;;;;5099123;28;20732;-45
2022/06/25 03:10:34;;;;;;;14.20;2.33;;;;;;;;;;5102345;28;20044;-47
2022/06/25 03:13:00;;;;;;;2.15;1.00;;;;;;;;;;5097159;28;20047;-49
2022/06/25 03:15:25;;;;;;;1.83;1.10;;;;;;;;;;5099815;28;20707;-51
2022/06/25 03:17:50;;;;;;;1.88;1.33;;;;;;;;;;5099197;28;20040;-48
2022/06/25 03:20:16;;;;;;;3.65;1.48;;;;;;;;;;5102845;28;20043;-46
2022/06/25 03:22:41;;;;;;;2.53;1.20;;;;;;;;;;5101539;28;20063;-48
2022/06/25 03:25:07;;;;;;;2.42;1.20;;;;;;;;;;5103379;28;20054;-48
2022/06/25 03:27:32;;;;;;;2.88;1.63;;;;;;;;;;5104646;28;20145;-47
2022/06/25 03:29:57;;;;;;;5.95;1.65;;;;;;;;;;5103808;28;20548;-46
2022/06/25 03:32:22;;;;;;;1.90;1.20;;;;;;;;;;5105371;28;20071;-49
2022/06/25 03:34:48;;;;;;;2.80;1.45;;;;;;;;;;5102303;28;20126;-45
2022/06/25 03:37:13;;;;;;;3.20;1.30;;;;;;;;;;5103428;28;21008;-47
2022/06/25 03:39:38;;;;;;;3.15;1.35;;;;;;;;;;5099211;28;20118;-44
2022/06/25 03:42:04;;;;;;;2.65;1.20;;;;;;;;;;5106029;28;20042;-47
2022/06/25 03:44:29;;;;;;;4.30;0.80;;;;;;;;;;5104618;28;20139;-46
2022/06/25 03:46:54;;;;;;;1.90;1.33;;;;;;;;;;5102815;28;20044;-49
2022/06/25 03:49:20;;;;;;;2.92;1.45;;;;;;;;;;5098660;28;20157;-46
2022/06/25 03:51:45;;;;;;;5.35;1.98;;;;;;;;;;5105144;28;20166;-45
2022/06/25 03:54:10;;;;;;;1.33;1.08;;;;;;;;;;5104754;28;20122;-47
2022/06/25 03:56:36;;;;;;;3.38;0.73;;;;;;;;;;5105958;28;20043;-49
2022/06/25 03:59:01;;;;;;;4.45;1.88;;;;;;;;;;5104522;28;20087;-48
2022/06/25 04:01:27;;;;;;;3.63;1.92;;;;;;;;;;5104473;28;20048;-45
2022/06/25 04:03:53;;;;;;;3.20;1.58;;;;;;;;;;5102477;28;20066;-45
2022/06/25 04:06:18;;;;;;;2.25;1.08;;;;;;;;;;5101832;28;20040;-47
2022/06/25 04:08:44;;;;;;;8.43;1.75;;;;;;;;;;5102140;28;20043;-49
2022/06/25 04:11:10;;;;;;;2.33;1.35;;;;;;;;;;5101911;28;20447;-50
2022/06/25 04:13:35;;;;;;;1.92;1.17;;;;;;;;;;5100841;28;20544;-47
2022/06/25 04:16:01;;;;;;;1.25;0.90;;;;;;;;;;5103576;28;20043;-49
2022/06/25 04:18:26;;;;;;;2.95;1.35;;;;;;;;;;5104046;28;20059;-48
2022/06/25 04:20:51;;;;;;;5.88;1.55;;;;;;;;;;5104239;28;20069;-47
2022/06/25 04:23:17;;;;;;;2.60;1.45;;;;;;;;;;5104336;28;20050;-45
2022/06/25 04:25:42;;;;;;;7.57;1.30;;;;;;;;;;5103741;28;20055;-47
2022/06/25 04:30:52;;;;;;;4.63;2.67;;;;;;;;;;5102369;28;20058;-44
2022/06/25 04:33:17;;;;;;;2.67;1.27;;;;;;;;;;5102356;28;20376;-47
2022/06/25 04:35:43;;;;;;;7.38;1.13;;;;;;;;;;5108173;28;20089;-46
2022/06/25 04:38:08;;;;;;;4.25;2.33;;;;;;;;;;5108605;28;20067;-44
2022/06/25 04:40:34;;;;;;;5.18;2.20;;;;;;;;;;5105633;28;20047;-49
2022/06/25 04:42:59;;;;;;;6.80;1.92;;;;;;;;;;5103256;28;20131;-45
2022/06/25 04:45:25;;;;;;;10.52;0.75;;;;;;;;;;5107595;28;20043;-44
2022/06/25 04:47:50;;;;;;;9.40;1.95;;;;;;;;;;5106061;28;20039;-47
2022/06/25 04:50:15;;;;;;;1.23;0.75;;;;;;;;;;5104837;28;20047;-44
2022/06/25 04:52:41;;;;;;;4.45;1.52;;;;;;;;;;5104217;28;20048;-46
2022/06/25 04:55:06;;;;;;;4.85;1.95;;;;;;;;;;5105553;28;20043;-46
2022/06/25 04:57:31;;;;;;;2.83;1.23;;;;;;;;;;5105500;28;20040;-48
2022/06/25 04:59:57;;;;;;;2.10;1.25;;;;;;;;;;5108983;28;20462;-46
2022/06/25 05:02:22;;;;;;;3.67;1.52;;;;;;;;;;5105285;28;20503;-45
2022/06/25 05:04:47;;;;;;;2.33;1.02;;;;;;;;;;5105478;28;20047;-47
2022/06/25 05:07:13;;;;;;;7.72;1.00;;;;;;;;;;5105561;28;20043;-46
2022/06/25 05:09:38;;;;;;;3.22;1.63;;;;;;;;;;5101967;28;20678;-50
2022/06/25 05:12:04;;;;;;;3.08;1.25;;;;;;;;;;5106163;28;20562;-49
2022/06/25 05:14:29;;;;;;;5.75;1.42;;;;;;;;;;5106780;28;20139;-47
2022/06/25 05:16:55;;;;;;;5.88;3.03;;;;;;;;;;5100855;28;20520;-47
2022/06/25 05:19:20;;;;;;;3.35;1.58;;;;;;;;;;5101622;28;20071;-52
2022/06/25 05:21:46;;;;;;;2.15;1.00;;;;;;;;;;5107152;28;20067;-46
2022/06/25 05:24:12;;;;;;;3.28;1.38;;;;;;;;;;5106154;27;20058;-47
2022/06/25 05:26:37;;;;;;;1.70;1.02;;;;;;;;;;5107730;28;20158;-51
2022/06/25 05:29:02;;;;;;;3.28;1.30;;;;;;;;;;5105818;28;20578;-46
2022/06/25 05:31:28;;;;;;;1.35;1.10;;;;;;;;;;5105545;28;20054;-46
2022/06/25 05:33:53;;;;;;;3.33;2.28;;;;;;;;;;5103050;28;20043;-51
2022/06/25 05:36:18;;;;;;;2.83;1.40;;;;;;;;;;5099818;28;20087;-47
2022/06/25 05:38:44;;;;;;;7.43;1.30;;;;;;;;;;5105891;28;20081;-50
2022/06/25 05:41:09;;;;;;;3.00;1.90;;;;;;;;;;5103780;28;20118;-48
2022/06/25 05:43:38;;;;;;;1.60;1.23;;;;;;;;;;5103684;28;20411;-55
2022/06/25 05:46:04;;;;;;;3.47;2.28;;;;;;;;;;5101881;28;20087;-47
2022/06/25 05:48:29;;;;;;;4.00;2.15;;;;;;;;;;5105980;27;20063;-47
2022/06/25 05:50:56;;;;;;;4.07;1.25;;;;;;;;;;5103234;28;20494;-47
2022/06/25 05:53:21;;;;;;;2.85;1.98;;;;;;;;;;5104846;28;20039;-45
2022/06/25 05:55:47;;;;;;;3.22;2.35;;;;;;;;;;5102383;28;20408;-47
2022/06/25 05:58:12;;;;;;;5.45;2.28;;;;;;;;;;5102526;28;20044;-47
2022/06/25 06:00:38;;;;;;;10.18;2.20;;;;;;;;;;5097998;28;20052;-43
2022/06/25 06:03:03;;;;;;;2.72;1.90;;;;;;;;;;5101160;28;20407;-43
2022/06/25 06:05:28;;;;;;;2.80;1.80;;;;;;;;;;5088855;28;20047;-42
2022/06/25 06:07:54;;;;;;;4.18;1.52;;;;;;;;;;5102696;28;20039;-45
2022/06/25 06:10:19;;;;;;;3.63;2.08;;;;;;;;;;5104164;28;20140;-52
2022/06/25 06:12:45;;;;;;;5.38;2.70;;;;;;;;;;5104068;28;20047;-45
2022/06/25 06:15:10;;;;;;;5.00;2.80;;;;;;;;;;5105930;28;20047;-47
2022/06/25 06:17:36;;;;;;;5.53;1.40;;;;;;;;;;5105566;28;20056;-47
2022/06/25 06:20:01;;;;;;;4.53;2.65;;;;;;;;;;5100098;28;20111;-51
2022/06/25 06:22:27;;;;;;;3.67;1.85;;;;;;;;;;5106299;28;20036;-52
2022/06/25 06:24:52;;;;;;;8.65;2.22;;;;;;;;;;5098138;28;20051;-50
2022/06/25 06:27:18;;;;;;;13.52;2.72;;;;;;;;;;5106166;27;20047;-50
2022/06/25 06:29:43;;;;;;;3.00;2.10;;;;;;;;;;5104523;27;20051;-49
2022/06/25 06:32:08;;;;;;;17.27;2.40;;;;;;;;;;5103890;28;20113;-47
2022/06/25 06:34:34;;;;;;;6.63;2.72;;;;;;;;;;5106247;28;20119;-48
2022/06/25 06:36:59;;;;;;;3.15;1.48;;;;;;;;;;5101001;28;20043;-49
2022/06/25 06:39:24;;;;;;;4.43;2.60;;;;;;;;;;5104503;28;20455;-50
2022/06/25 06:41:50;;;;;;;8.43;2.13;;;;;;;;;;5104742;28;20040;-53
2022/06/25 06:44:16;;;;;;;9.65;2.15;;;;;;;;;;5105163;28;20058;-50
2022/06/25 06:46:41;;;;;;;11.52;2.60;;;;;;;;;;5101454;28;20092;-50
2022/06/25 06:49:07;;;;;;;3.88;2.83;;;;;;;;;;5104373;28;20075;-50
2022/06/25 06:51:32;;;;;;;6.55;4.07;;;;;;;;;;5105719;28;20050;-52
2022/06/25 06:53:57;;;;;;;5.10;3.70;;;;;;;;;;5104772;28;20043;-48
2022/06/25 06:56:23;;;;;;;10.05;3.25;;;;;;;;;;5101620;28;20043;-47
2022/06/25 06:58:48;;;;;;;5.03;1.67;;;;;;;;;;5098356;28;20395;-50
2022/06/25 07:01:14;;;;;;;8.65;2.05;;;;;;;;;;5100120;28;20104;-50
2022/06/25 07:03:39;;;;;;;5.50;1.80;;;;;;;;;;5098607;28;20071;-48
2022/06/25 07:06:04;;;;;;;19.10;2.83;;;;;;;;;;5102531;28;20473;-52
2022/06/25 07:08:30;;;;;;;3.53;1.80;;;;;;;;;;5100614;28;20052;-48
2022/06/25 07:10:55;;;;;;;2.25;1.50;;;;;;;;;;5099754;28;20047;-50
2022/06/25 07:13:20;;;;;;;3.17;1.80;;;;;;;;;;5100723;28;20049;-47
2022/06/25 07:15:46;;;;;;;4.32;1.98;;;;;;;;;;5097539;28;20047;-52
2022/06/25 07:18:11;;;;;;;3.38;1.73;;;;;;;;;;5099275;28;20043;-51
2022/06/25 07:20:36;;;;;;;1.38;0.80;;;;;;;;;;5098982;28;20129;-50
2022/06/25 07:23:02;;;;;;;2.97;1.95;;;;;;;;;;5101233;28;20098;-50
2022/06/25 07:25:27;;;;;;;6.57;3.03;;;;;;;;;;5101371;28;20051;-50
2022/06/25 07:27:52;;;;;;;3.47;1.13;;;;;;;;;;5101591;28;20150;-49
2022/06/25 07:30:18;;;;;;;17.92;3.25;;;;;;;;;;5105143;28;20197;-48
2022/06/25 07:32:43;;;;;;;2.90;1.83;;;;;;;;;;5105147;28;20407;-42
2022/06/25 07:35:09;;;;;;;7.43;1.75;;;;;;;;;;5104617;28;20475;-44
2022/06/25 07:37:34;;;;;;;1.33;0.70;;;;;;;;;;5104612;28;20066;-42
2022/06/25 07:40:00;;;;;;;5.15;3.22;;;;;;;;;;5103336;28;20391;-42
2022/06/25 07:42:25;;;;;;;9.55;3.17;;;;;;;;;;5102263;28;20060;-40
2022/06/25 07:44:51;;;;;;;2.95;2.08;;;;;;;;;;5103870;28;20566;-40
2022/06/25 07:47:16;;;;;;;2.28;1.30;;;;;;;;;;5101357;28;20475;-45
2022/06/25 07:52:25;;;;;;;1.40;1.08;;;;;;;;;;5099246;28;20047;-43
2022/06/25 07:54:53;;;;;;;1.58;0.93;;;;;;;;;;5081713;28;20052;-45
2022/06/25 07:57:18;;;;;;;2.92;1.50;;;;;;;;;;5103421;28;20062;-41
2022/06/25 07:59:44;;;;;;;1.27;1.00;;;;;;;;;;5102670;28;20043;-43
2022/06/25 08:02:09;;;;;;;4.72;1.60;;;;;;;;;;5102543;28;20055;-39
2022/06/25 08:04:34;;;;;;;2.42;1.13;;;;;;;;;;5103251;28;20057;-43
2022/06/25 08:07:00;;;;;;;7.88;1.00;;;;;;;;;;5104410;28;20036;-40
2022/06/25 08:09:25;;;;;;;7.25;2.47;;;;;;;;;;5106481;28;20051;-44
2022/06/25 08:11:51;;;;;;;12.32;2.08;;;;;;;;;;5106551;28;20046;-45
2022/06/25 08:14:16;;;;;;;22.48;1.25;;;;;;;;;;5106045;28;20052;-46
2022/06/25 08:16:41;;;;;;;8.23;2.20;;;;;;;;;;5105169;28;20426;-44
2022/06/25 08:19:07;;;;;;;1.95;0.55;;;;;;;;;;5107844;28;20126;-53
2022/06/25 08:21:32;;;;;;;3.80;1.45;;;;;;;;;;5108507;28;20097;-52
2022/06/25 08:23:57;;;;;;;1.17;0.55;;;;;;;;;;5105292;28;20088;-52
2022/06/25 08:26:23;;;;;;;5.18;1.77;;;;;;;;;;5104930;28;20509;-55
2022/06/25 08:28:48;;;;;;;2.40;0.98;;;;;;;;;;5105211;28;20584;-47
2022/06/25 08:31:14;;;;;;;3.80;1.52;;;;;;;;;;5107298;28;20550;-51
2022/06/25 08:33:39;;;;;;;1.75;1.10;;;;;;;;;;5105761;28;20423;-52
2022/06/25 08:36:04;;;;;;;2.55;1.45;;;;;;;;;;5103441;28;20127;-51
2022/06/25 08:38:30;;;;;;;1.77;0.73;;;;;;;;;;5101140;28;20039;-51
2022/06/25 08:40:56;;;;;;;1.23;0.80;;;;;;;;;;5106428;28;20066;-51
2022/06/25 08:43:22;;;;;;;7.43;1.50;;;;;;;;;;5107787;28;20252;-51
2022/06/25 08:45:47;;;;;;;3.92;1.17;;;;;;;;;;5105213;28;20054;-53
2022/06/25 08:48:16;;;;;;;5.75;1.25;;;;;;;;;;5103268;28;20036;-53
2022/06/25 08:50:42;;;;;;;2.85;1.35;;;;;;;;;;5105070;28;20035;-53
2022/06/25 08:53:08;;;;;;;3.35;0.70;;;;;;;;;;5101368;28;20040;-53
2022/06/25 08:55:36;;;;;;;1.58;1.00;;;;;;;;;;5104772;28;20100;-51
2022/06/25 08:58:02;;;;;;;1.45;0.98;;;;;;;;;;5102827;28;20039;-50
2022/06/25 09:00:28;;;;;;;5.93;0.77;;;;;;;;;;5105260;28;20045;-51
2022/06/25 09:02:54;;;;;;;5.97;1.58;;;;;;;;;;5106219;28;20042;-55
2022/06/25 09:05:29;;;;;;;1.42;1.00;;;;;;;;;;5104546;28;20039;-52
2022/06/25 09:07:55;;;;;;;3.67;1.55;;;;;;;;;;5105685;28;20031;-51
2022/06/25 09:10:21;;;;;;;4.03;1.75;;;;;;;;;;5106465;28;20734;-53
2022/06/25 09:12:53;;;;;;;7.32;2.05;;;;;;;;;;5105478;28;20051;-49
2022/06/25 09:15:22;;;;;;;4.53;1.65;;;;;;;;;;5106716;28;20677;-53
2022/06/25 09:17:51;;;;;;;4.55;1.33;;;;;;;;;;5105092;28;20047;-50
2022/06/25 09:20:17;;;;;;;1.38;0.60;;;;;;;;;;5106600;28;20040;-49
2022/06/25 09:22:56;;;;;;;1.77;0.77;;;;;;;;;;5106275;28;20509;-52
2022/06/25 09:25:28;;;;;;;7.50;2.13;;;;;;;;;;5107299;28;20066;-52
2022/06/25 09:27:54;;;;;;;1.95;1.05;;;;;;;;;;5105383;28;20035;-50
2022/06/25 09:30:20;;;;;;;3.15;1.38;;;;;;;;;;5106498;28;20120;-53
2022/06/25 09:32:49;;;;;;;0.60;0.40;;;;;;;;;;5102322;28;20031;-49
2022/06/25 09:35:26;;;;;;;7.30;1.17;;;;;;;;;;5106751;28;20138;-53
2022/06/25 09:37:52;;;;;;;3.63;2.10;;;;;;;;;;5100334;28;20051;-49
2022/06/25 09:40:17;;;;;;;2.00;0.88;;;;;;;;;;5102351;28;20100;-51
2022/06/25 09:42:42;;;;;;;2.05;0.60;;;;;;;;;;5097388;28;20051;-50
2022/06/25 09:45:13;;;;;;;3.38;1.70;;;;;;;;;;5105165;28;20048;-49
2022/06/25 09:47:43;;;;;;;11.05;1.55;;;;;;;;;;5106174;28;20108;-52
2022/06/25 09:50:08;;;;;;;4.90;1.35;;;;;;;;;;5104142;28;20138;-48
2022/06/25 09:52:35;;;;;;;6.05;1.27;;;;;;;;;;5104003;28;20126;-53
2022/06/25 09:55:00;;;;;;;0.93;0.40;;;;;;;;;;5104364;28;20032;-52
2022/06/25 09:57:26;;;;;;;9.55;2.08;;;;;;;;;;5107446;28;20040;-50
2022/06/25 09:59:53;;;;;;;12.45;1.08;;;;;;;;;;5107334;28;20039;-48
2022/06/25 10:02:19;;;;;;;2.28;0.52;;;;;;;;;;5101836;28;20047;-51
2022/06/25 10:04:46;;;;;;;1.65;0.77;;;;;;;;;;5104398;28;20086;-51
2022/06/25 10:07:12;;;;;;;2.63;0.77;;;;;;;;;;5106139;28;20506;-53
2022/06/25 10:09:40;;;;;;;0.85;0.32;;;;;;;;;;5106377;28;20136;-48
2022/06/25 10:12:05;;;;;;;0.55;0.30;;;;;;;;;;5104408;28;20574;-50
2022/06/25 10:14:31;;;;;;;3.80;0.85;;;;;;;;;;5107006;28;20048;-50
2022/06/25 10:16:58;;;;;;;2.13;0.70;;;;;;;;;;5102760;28;20355;-54
2022/06/25 10:19:24;;;;;;;4.43;0.85;;;;;;;;;;5103468;28;20059;-53
2022/06/25 10:21:50;;;;;;;0.88;0.57;;;;;;;;;;5104783;28;20078;-51
2022/06/25 10:24:16;;;;;;;1.45;0.57;;;;;;;;;;5104155;28;20070;-51
2022/06/25 10:26:41;;;;;;;0.43;0.30;;;;;;;;;;5103906;28;20082;-51
2022/06/25 10:29:23;;;;;;;1.50;0.82;;;;;;;;;;5100049;28;20051;-53
2022/06/25 10:31:48;;;;;;;4.57;0.73;;;;;;;;;;5100850;28;20146;-54
2022/06/25 10:34:14;;;;;;;1.88;0.68;;;;;;;;;;5105920;28;20123;-51
2022/06/25 10:36:41;;;;;;;2.65;0.98;;;;;;;;;;5105997;28;20046;-51
2022/06/25 10:39:36;;;;;;;2.33;1.33;;;;;;;;;;5105373;28;20035;-53
2022/06/25 10:44:54;;;;;;;0.68;0.38;;;;;;;;;;5096782;28;20716;-54
2022/06/25 10:47:36;;;;;;;2.40;0.90;;;;;;;;;;5098926;28;20158;-50
2022/06/25 10:50:20;;;;;;;0.35;0.30;;;;;;;;;;5104061;28;20368;-55
2022/06/25 10:53:01;;;;;;;1.38;0.40;;;;;;;;;;5103125;28;20130;-55
2022/06/25 10:55:26;;;;;;;;;;;;;;;;;;5104010;27;20055;-51
2022/06/25 10:57:51;;;;;;;0.43;0.20;;;;;;;;;;5105180;28;19920;-54
2022/06/25 11:00:16;;;;;;;2.75;0.50;;;;;;;;;;5105151;28;20467;-53
2022/06/25 11:02:42;;;;;;;3.35;0.70;;;;;;;;;;5105680;28;20157;-54
2022/06/25 11:05:17;;;;;;;2.42;0.88;;;;;;;;;;5102395;28;20040;-53
2022/06/25 11:07:43;;;;;;;4.05;1.83;;;;;;;;;;5104195;28;20088;-52
2022/06/25 11:10:08;;;;;;;2.58;0.65;;;;;;;;;;5100257;28;20051;-53
2022/06/25 11:12:34;;;;;;;2.03;0.70;;;;;;;;;;5101261;28;20054;-50
2022/06/25 11:15:04;;;;;;;3.03;0.75;;;;;;;;;;5104711;28;20082;-50
2022/06/25 11:17:30;;;;;;;2.97;1.20;;;;;;;;;;5104082;28;20067;-54
2022/06/25 11:20:15;;;;;;;7.85;1.40;;;;;;;;;;5101663;28;20082;-54
2022/06/25 11:22:47;;;;;;;2.42;0.68;;;;;;;;;;5102356;28;20039;-52
2022/06/25 11:30:42;;;;;;;0.68;0.45;;;;;;;;;;5101865;28;20131;-53
2022/06/25 11:33:09;;;;;;;1.92;1.05;;;;;;;;;;5100431;28;20056;-53
2022/06/25 11:35:39;;;;;;;0.95;0.50;;;;;;;;;;5102978;28;20355;-51
2022/06/25 11:38:12;;;;;;;4.57;0.50;;;;;;;;;;5104385;28;20508;-51
2022/06/25 11:40:37;;;;;;;2.63;1.08;;;;;;;;;;5104611;28;20039;-53
2022/06/25 11:43:06;;;;;;;6.15;1.15;;;;;;;;;;5109592;28;20044;-51
2022/06/25 11:45:32;;;;;;;10.98;2.00;;;;;;;;;;5105275;28;20040;-53
2022/06/25 11:47:57;;;;;;;0.50;0.43;;;;;;;;;;5101363;28;20047;-50
2022/06/25 11:50:22;;;;;;;3.10;1.48;;;;;;;;;;5103729;28;20051;-51
2022/06/25 11:52:48;;;;;;;0.80;0.60;;;;;;;;;;5110550;28;20051;-51
2022/06/25 11:55:13;;;;;;;2.90;0.90;;;;;;;;;;5108371;28;20070;-53
2022/06/25 11:57:40;;;;;;;2.25;1.17;;;;;;;;;;5108719;28;20112;-52
2022/06/25 12:00:07;;;;;;;4.75;2.90;;;;;;;;;;5109026;28;20060;-52
2022/06/25 12:02:33;;;;;;;2.03;1.52;;;;;;;;;;5106736;28;20040;-52
2022/06/25 12:04:59;;;;;;;2.45;1.17;;;;;;;;;;5105160;28;20058;-49
2022/06/25 12:07:25;;;;;;;1.23;0.88;;;;;;;;;;5109394;28;20566;-51
2022/06/25 12:09:51;;;;;;;1.67;0.82;;;;;;;;;;5107810;28;20157;-52
2022/06/25 12:12:17;;;;;;;2.58;0.93;;;;;;;;;;5108896;28;20051;-53
2022/06/25 12:14:42;;;;;;;3.15;1.52;;;;;;;;;;5107143;28;20848;-53
2022/06/25 12:17:10;;;;;;;3.80;1.80;;;;;;;;;;5107570;28;20039;-53
2022/06/25 12:19:51;;;;;;;1.25;0.90;;;;;;;;;;5106211;28;20491;-48
2022/06/25 12:22:19;;;;;;;3.50;0.93;;;;;;;;;;5107296;28;20363;-49
2022/06/25 12:24:45;;;;;;;9.20;1.02;;;;;;;;;;5108011;28;20048;-50
2022/06/25 12:27:11;;;;;;;1.63;0.80;;;;;;;;;;5107889;28;20149;-52
2022/06/25 12:29:36;;;;;;;0.45;0.30;;;;;;;;;;5106666;28;20637;-54
2022/06/25 12:32:01;;;;;;;4.07;1.77;;;;;;;;;;5108311;28;20054;-54
2022/06/25 12:34:27;;;;;;;2.30;0.55;;;;;;;;;;5107614;28;20042;-53
2022/06/25 12:36:53;;;;;;;2.35;0.90;;;;;;;;;;5107403;28;20423;-52
2022/06/25 12:39:28;;;;;;;3.35;0.82;;;;;;;;;;5105118;28;20479;-52
2022/06/25 12:41:53;;;;;;;0.88;0.68;;;;;;;;;;5107789;28;20176;-48
2022/06/25 12:44:19;;;;;;;2.58;0.93;;;;;;;;;;5104511;28;20146;-53
2022/06/25 12:46:57;;;;;;;0.63;0.40;;;;;;;;;;5106471;28;20345;-55
2022/06/25 12:49:22;;;;;;;0.52;0.40;;;;;;;;;;5106554;28;20043;-54
2022/06/25 12:51:48;;;;;;;1.17;0.50;;;;;;;;;;5105085;28;20062;-53
2022/06/25 12:54:13;;;;;;;2.42;0.90;;;;;;;;;;5104515;28;20063;-51
2022/06/25 12:56:39;;;;;;;1.95;0.95;;;;;;;;;;5106647;28;20513;-52
2022/06/25 12:59:06;;;;;;;0.88;0.30;;;;;;;;;;5102959;28;20043;-54
2022/06/25 13:01:33;;;;;;;2.28;0.82;;;;;;;;;;5104048;28;20066;-54
2022/06/25 13:04:00;;;;;;;4.93;2.17;;;;;;;;;;5105586;28;20051;-53
2022/06/25 13:06:26;;;;;;;6.22;1.20;;;;;;;;;;5106193;28;20134;-53
2022/06/25 13:08:51;;;;;;;5.10;1.70;;;;;;;;;;5106964;28;20116;-51
2022/06/25 13:11:20;;;;;;;2.30;1.17;;;;;;;;;;5107812;28;20044;-54
2022/06/25 13:13:46;;;;;;;3.33;1.27;;;;;;;;;;5106105;28;20067;-52
2022/06/25 13:16:12;;;;;;;1.52;0.95;;;;;;;;;;5102666;28;20487;-51
2022/06/25 13:18:37;;;;;;;1.10;0.73;;;;;;;;;;5106870;28;20057;-53
2022/06/25 13:21:03;;;;;;;4.38;1.33;;;;;;;;;;5108282;28;20058;-53
2022/06/25 13:23:28;;;;;;;3.00;1.05;;;;;;;;;;5108213;28;20147;-55
2022/06/25 13:25:53;;;;;;;1.58;0.77;;;;;;;;;;5103931;28;20040;-52
2022/06/25 13:28:19;;;;;;;13.63;1.77;;;;;;;;;;5100686;28;20051;-49
2022/06/25 13:30:44;;;;;;;3.15;1.67;;;;;;;;;;5105874;28;20641;-51
2022/06/25 13:33:09;;;;;;;3.10;1.42;;;;;;;;;;5104504;28;20039;-53
2022/06/25 13:35:35;;;;;;;2.90;1.27;;;;;;;;;;5105735;28;20495;-52
2022/06/25 13:38:00;;;;;;;4.47;1.48;;;;;;;;;;5105291;28;20051;-49
2022/06/25 13:40:26;;;;;;;3.47;1.30;;;;;;;;;;5104482;28;20039;-51
2022/06/25 13:42:52;;;;;;;1.05;0.40;;;;;;;;;;5102990;28;20498;-54
2022/06/25 13:45:17;;;;;;;2.58;1.00;;;;;;;;;;5106604;28;20139;-53
2022/06/25 13:47:42;;;;;;;4.25;1.45;;;;;;;;;;5106798;28;20130;-51
2022/06/25 13:50:08;;;;;;;3.05;1.05;;;;;;;;;;5105148;28;20086;-50
2022/06/25 13:52:33;;;;;;;0.85;0.60;;;;;;;;;;5106136;28;20050;-49
2022/06/25 13:54:58;;;;;;;0.98;0.70;;;;;;;;;;5106309;28;20115;-49
2022/06/25 13:57:25;;;;;;;1.35;0.82;;;;;;;;;;5103628;28;20371;-49
2022/06/25 13:59:50;;;;;;;5.05;1.30;;;;;;;;;;5106391;28;20115;-50
2022/06/25 14:02:15;;;;;;;4.78;1.45;;;;;;;;;;5103263;28;20127;-50
2022/06/25 14:04:41;;;;;;;4.65;2.47;;;;;;;;;;5087119;28;20421;-51
2022/06/25 14:07:06;;;;;;;3.15;1.60;;;;;;;;;;5104194;28;20039;-49
2022/06/25 14:09:32;;;;;;;1.38;0.55;;;;;;;;;;5103301;28;20043;-50
2022/06/25 14:11:57;;;;;;;6.50;2.15;;;;;;;;;;5105342;28;20443;-50
2022/06/25 14:14:23;;;;;;;1.95;0.68;;;;;;;;;;5104412;28;20126;-52
2022/06/25 14:16:49;;;;;;;3.67;2.60;;;;;;;;;;5105134;28;20057;-50
2022/06/25 14:19:14;;;;;;;1.92;1.00;;;;;;;;;;5101268;28;20047;-53
2022/06/25 14:21:40;;;;;;;2.10;1.17;;;;;;;;;;5087818;28;20355;-53
2022/06/25 14:24:05;;;;;;;1.23;0.57;;;;;;;;;;5106047;28;20558;-52
2022/06/25 14:26:30;;;;;;;1.27;0.65;;;;;;;;;;5103154;28;20048;-52
2022/06/25 14:28:56;;;;;;;3.60;2.25;;;;;;;;;;5092654;28;20059;-49
2022/06/25 14:31:21;;;;;;;5.47;1.35;;;;;;;;;;5098585;28;20059;-52
2022/06/25 14:33:46;;;;;;;2.13;0.70;;;;;;;;;;5102319;28;20043;-53
2022/06/25 14:44:43;;;;;;;9.68;3.53;;;;;;;;;;5048569;28;20132;-49
2022/06/25 14:47:09;;;;;;;1.45;0.73;;;;;;;;;;5046890;28;20128;-51
2022/06/25 14:49:34;;;;;;;2.15;1.23;;;;;;;;;;5074397;28;20055;-52
2022/06/25 14:51:59;;;;;;;3.72;1.83;;;;;;;;;;5104846;28;20130;-52
2022/06/25 14:54:25;;;;;;;9.57;3.55;;;;;;;;;;5104817;28;20092;-48
2022/06/25 14:56:50;;;;;;;3.78;2.03;;;;;;;;;;5105233;28;20035;-53
2022/06/25 14:59:16;;;;;;;6.85;3.13;;;;;;;;;;5102146;28;20047;-54
2022/06/25 15:01:41;;;;;;;10.68;1.42;;;;;;;;;;5104358;28;20067;-50
2022/06/25 15:04:06;;;;;;;1.88;0.60;;;;;;;;;;5105027;28;21064;-48
2022/06/25 15:06:32;;;;;;;5.53;1.17;;;;;;;;;;5102502;28;20039;-49
2022/06/25 15:08:57;;;;;;;12.35;1.00;;;;;;;;;;5101548;28;20047;-50
2022/06/25 15:11:22;;;;;;;4.57;0.82;;;;;;;;;;5101530;28;20464;-52
2022/06/25 15:13:48;;;;;;;3.13;1.60;;;;;;;;;;5102884;28;20044;-51